createdAt,value
2023-02-26T00:00:25.721Z,63.76
2023-02-26T00:02:53.665Z,63.41
2023-02-26T00:05:21.645Z,63.63
2023-02-26T00:07:49.924Z,64.55
2023-02-26T00:10:17.987Z,64.34
2023-02-26T00:12:48.017Z,64.40
2023-02-26T00:15:18.338Z,64.59
2023-02-26T00:17:56.243Z,64.35
2023-02-26T00:20:25.162Z,64.60
2023-02-26T00:22:53.622Z,64.90
2023-02-26T00:25:21.504Z,64.93
2023-02-26T00:27:51.478Z,65.15
2023-02-26T00:30:20.298Z,65.19
2023-02-26T00:32:48.883Z,64.55
2023-02-26T00:35:17.992Z,64.01
2023-02-26T00:38:03.381Z,64.56
2023-02-26T00:40:38.754Z,64.18
2023-02-26T00:43:10.902Z,64.33
2023-02-26T00:45:42.402Z,63.65
2023-02-26T00:48:26.246Z,64.19
2023-02-26T00:51:00.951Z,63.78
2023-02-26T00:53:35.200Z,63.83
2023-02-26T00:56:03.183Z,64.09
2023-02-26T00:58:32.355Z,64.10
2023-02-26T01:01:01.056Z,64.24
2023-02-26T01:03:29.951Z,64.56
2023-02-26T01:05:58.103Z,64.34
2023-02-26T01:08:32.935Z,64.94
2023-02-26T01:11:01.591Z,64.75
2023-02-26T01:13:29.912Z,64.97
2023-02-26T01:16:05.063Z,65.04
2023-02-26T01:18:39.789Z,64.64
2023-02-26T01:21:14.830Z,64.72
2023-02-26T01:23:46.680Z,64.35
2023-02-26T01:26:18.984Z,63.74
2023-02-26T01:28:47.365Z,63.58
2023-02-26T01:31:31.053Z,63.69
2023-02-26T01:34:04.458Z,63.71
2023-02-26T01:36:35.815Z,63.63
2023-02-26T01:39:08.522Z,63.85
2023-02-26T01:41:40.556Z,65.29
2023-02-26T01:44:21.483Z,65.26
2023-02-26T01:47:17.402Z,66.02
2023-02-26T01:49:46.286Z,65.63
2023-02-26T01:52:47.538Z,65.38
2023-02-26T01:55:16.519Z,65.49
2023-02-26T01:57:45.142Z,65.25
2023-02-26T02:00:14.311Z,65.00
2023-02-26T02:02:43.872Z,65.62
2023-02-26T02:05:17.899Z,65.17
2023-02-26T02:07:47.494Z,65.08
2023-02-26T02:10:15.587Z,64.81
2023-02-26T02:12:53.188Z,65.02
2023-02-26T02:15:27.644Z,64.89
2023-02-26T02:18:06.180Z,64.46
2023-02-26T02:21:03.984Z,64.58
2023-02-26T02:23:35.763Z,64.93
2023-02-26T02:26:20.783Z,64.39
2023-02-26T02:29:10.789Z,64.86
2023-02-26T02:31:46.972Z,64.53
2023-02-26T02:34:20.654Z,64.21
2023-02-26T02:36:55.229Z,64.66
2023-02-26T02:39:28.781Z,66.17
2023-02-26T02:42:02.662Z,67.28
2023-02-26T02:44:33.928Z,68.04
2023-02-26T02:47:06.353Z,68.86
2023-02-26T02:49:39.550Z,68.75
2023-02-26T02:52:14.868Z,69.12
2023-02-26T02:54:50.248Z,69.01
2023-02-26T02:57:22.428Z,69.11
2023-02-26T02:59:55.425Z,69.04
2023-02-26T03:02:33.377Z,68.90
2023-02-26T03:05:01.386Z,68.94
2023-02-26T03:07:34.246Z,68.79
2023-02-26T03:10:02.308Z,68.46
2023-02-26T03:12:33.275Z,68.24
2023-02-26T03:15:02.351Z,67.78
2023-02-26T03:17:37.531Z,67.81
2023-02-26T03:20:17.890Z,67.57
2023-02-26T03:22:54.293Z,67.68
2023-02-26T03:25:29.001Z,67.96
2023-02-26T03:28:08.239Z,67.93
2023-02-26T03:30:42.142Z,67.80
2023-02-26T03:33:18.860Z,67.79
2023-02-26T03:35:53.061Z,67.69
2023-02-26T03:38:29.445Z,67.09
2023-02-26T03:41:04.031Z,67.15
2023-02-26T03:43:38.222Z,66.90
2023-02-26T03:46:14.800Z,66.78
2023-02-26T03:48:46.365Z,66.69
2023-02-26T03:51:15.762Z,66.28
2023-02-26T03:54:06.369Z,66.44
2023-02-26T03:56:42.962Z,66.60
2023-02-26T03:59:39.583Z,66.13
2023-02-26T04:02:40.977Z,66.74
2023-02-26T04:05:20.024Z,66.53
2023-02-26T04:07:49.338Z,66.12
2023-02-26T04:10:20.381Z,65.88
2023-02-26T04:12:48.450Z,66.30
2023-02-26T04:15:16.538Z,66.40
2023-02-26T04:17:44.468Z,65.68
2023-02-26T04:20:12.947Z,65.35
2023-02-26T04:22:42.184Z,65.63
2023-02-26T04:25:10.629Z,65.33
2023-02-26T04:27:39.862Z,65.49
2023-02-26T04:30:09.739Z,65.55
2023-02-26T04:32:37.774Z,65.22
2023-02-26T04:35:08.578Z,64.83
2023-02-26T04:37:36.591Z,64.64
2023-02-26T04:40:07.632Z,64.22
2023-02-26T04:42:35.611Z,64.17
2023-02-26T04:45:03.855Z,64.07
2023-02-26T04:47:33.260Z,63.97
2023-02-26T04:50:01.462Z,63.70
2023-02-26T04:52:31.002Z,64.26
2023-02-26T04:55:00.013Z,63.40
2023-02-26T04:57:29.406Z,63.61
2023-02-26T04:59:58.154Z,63.13
2023-02-26T05:02:31.061Z,63.49
2023-02-26T05:04:59.739Z,63.02
2023-02-26T05:07:30.083Z,62.94
2023-02-26T05:09:58.042Z,63.45
2023-02-26T05:12:39.414Z,63.54
2023-02-26T05:15:08.432Z,63.10
2023-02-26T05:17:36.546Z,63.57
2023-02-26T05:20:05.885Z,62.97
2023-02-26T05:22:33.794Z,63.17
2023-02-26T05:25:01.668Z,63.55
2023-02-26T05:27:30.513Z,63.42
2023-02-26T05:29:59.945Z,63.19
2023-02-26T05:32:28.211Z,63.75
2023-02-26T05:34:57.883Z,63.91
2023-02-26T05:37:25.758Z,64.22
2023-02-26T05:39:53.594Z,63.40
2023-02-26T05:42:21.391Z,63.51
2023-02-26T05:44:49.243Z,63.23
2023-02-26T05:47:18.798Z,63.61
2023-02-26T05:49:46.733Z,63.76
2023-02-26T05:52:14.743Z,64.15
2023-02-26T05:54:42.764Z,63.63
2023-02-26T05:57:10.704Z,63.93
2023-02-26T05:59:39.288Z,63.64
2023-02-26T06:02:07.297Z,63.87
2023-02-26T06:04:36.917Z,63.79
2023-02-26T06:07:04.722Z,63.54
2023-02-26T06:09:32.535Z,63.93
2023-02-26T06:12:00.413Z,64.42
2023-02-26T06:14:28.217Z,64.13
2023-02-26T06:16:56.002Z,64.08
2023-02-26T06:19:44.958Z,64.34
2023-02-26T06:22:12.858Z,65.11
2023-02-26T06:24:40.653Z,64.90
2023-02-26T06:27:08.524Z,64.69
2023-02-26T06:29:37.638Z,64.87
2023-02-26T06:32:06.223Z,64.36
2023-02-26T06:34:34.572Z,64.86
2023-02-26T06:37:03.865Z,65.19
2023-02-26T06:39:31.764Z,64.86
2023-02-26T06:42:00.143Z,66.11
2023-02-26T06:44:31.008Z,66.13
2023-02-26T06:46:58.895Z,65.78
2023-02-26T06:49:26.760Z,64.68
2023-02-26T06:51:54.654Z,65.31
2023-02-26T06:54:23.894Z,64.85
2023-02-26T06:56:52.411Z,65.00
2023-02-26T06:59:20.400Z,65.08
2023-02-26T07:01:48.228Z,64.45
2023-02-26T07:04:16.026Z,64.81
2023-02-26T07:06:44.083Z,64.90
2023-02-26T07:09:12.105Z,64.61
2023-02-26T07:11:41.466Z,64.04
2023-02-26T07:14:09.301Z,63.91
2023-02-26T07:16:37.256Z,64.55
2023-02-26T07:19:05.152Z,64.30
2023-02-26T07:21:33.181Z,64.50
2023-02-26T07:24:01.313Z,64.14
2023-02-26T07:26:29.220Z,64.57
2023-02-26T07:28:58.463Z,64.56
2023-02-26T07:31:26.965Z,64.05
2023-02-26T07:33:55.015Z,63.78
2023-02-26T07:36:22.909Z,63.95
2023-02-26T07:38:50.839Z,63.85
2023-02-26T07:41:18.866Z,63.48
2023-02-26T07:43:46.758Z,63.82
2023-02-26T07:46:16.019Z,63.91
2023-02-26T07:48:44.067Z,63.95
2023-02-26T07:51:12.104Z,63.67
2023-02-26T07:53:39.884Z,63.78
2023-02-26T07:56:07.757Z,63.66
2023-02-26T07:58:35.564Z,63.27
2023-02-26T08:01:03.520Z,62.39
2023-02-26T08:03:33.166Z,60.92
2023-02-26T08:06:01.280Z,61.00
2023-02-26T08:08:31.374Z,60.75
2023-02-26T08:11:00.567Z,60.45
2023-02-26T08:13:29.068Z,59.90
2023-02-26T08:15:57.450Z,59.85
2023-02-26T08:18:25.722Z,59.17
2023-02-26T08:20:56.805Z,58.56
2023-02-26T08:23:26.662Z,58.70
2023-02-26T08:26:01.966Z,58.44
2023-02-26T08:28:30.572Z,58.72
2023-02-26T08:30:58.457Z,57.89
2023-02-26T08:33:27.457Z,58.86
2023-02-26T08:35:58.964Z,58.10
2023-02-26T08:38:27.664Z,58.34
2023-02-26T08:40:56.670Z,58.84
2023-02-26T08:43:25.162Z,57.25
2023-02-26T08:45:54.136Z,57.64
2023-02-26T08:48:22.399Z,57.58
2023-02-26T08:50:50.627Z,57.57
2023-02-26T08:53:19.849Z,57.21
2023-02-26T08:55:49.131Z,57.54
2023-02-26T08:58:17.587Z,55.90
2023-02-26T09:00:46.058Z,55.02
2023-02-26T09:03:14.186Z,54.32
2023-02-26T09:05:42.911Z,52.87
2023-02-26T09:08:15.466Z,52.18
2023-02-26T09:10:44.856Z,52.05
2023-02-26T09:13:12.741Z,53.18
2023-02-26T09:15:40.711Z,53.45
2023-02-26T09:18:15.266Z,52.91
2023-02-26T09:20:43.482Z,52.89
2023-02-26T09:23:11.574Z,52.91
2023-02-26T09:25:39.823Z,52.63
2023-02-26T09:28:09.051Z,51.15
2023-02-26T09:30:36.999Z,52.25
2023-02-26T09:33:05.663Z,51.17
2023-02-26T09:35:33.812Z,49.60
2023-02-26T09:38:01.683Z,49.80
2023-02-26T09:40:38.921Z,50.01
2023-02-26T09:43:22.940Z,50.65
2023-02-26T09:45:52.880Z,51.14
2023-02-26T09:48:22.135Z,50.02
2023-02-26T09:50:53.352Z,50.22
2023-02-26T09:53:24.011Z,50.18
2023-02-26T09:55:55.780Z,50.83
2023-02-26T09:58:29.961Z,50.60
2023-02-26T10:01:06.028Z,49.73
2023-02-26T10:03:43.599Z,49.23
2023-02-26T10:06:20.597Z,49.21
2023-02-26T10:08:59.932Z,49.42
2023-02-26T10:11:33.741Z,50.05
2023-02-26T10:14:08.130Z,50.15
2023-02-26T10:16:42.305Z,50.79
2023-02-26T10:19:16.158Z,50.94
2023-02-26T10:21:49.264Z,50.57
2023-02-26T10:24:21.888Z,50.61
2023-02-26T10:26:55.145Z,51.06
2023-02-26T10:29:29.415Z,51.74
2023-02-26T10:32:07.695Z,51.73
2023-02-26T10:34:40.282Z,51.66
2023-02-26T10:37:17.899Z,51.08
2023-02-26T10:39:51.544Z,50.93
2023-02-26T10:42:24.127Z,50.83
2023-02-26T10:45:20.278Z,50.13
2023-02-26T10:48:03.106Z,48.64
2023-02-26T10:50:32.201Z,48.96
2023-02-26T10:53:00.618Z,49.17
2023-02-26T10:55:38.893Z,48.02
2023-02-26T10:58:13.291Z,47.16
2023-02-26T11:00:45.112Z,47.91
2023-02-26T11:03:18.856Z,47.21
2023-02-26T11:05:48.193Z,46.98
2023-02-26T11:08:20.485Z,47.64
2023-02-26T11:10:51.850Z,47.35
2023-02-26T11:13:20.030Z,47.13
2023-02-26T11:15:52.185Z,47.07
2023-02-26T11:18:24.629Z,47.31
2023-02-26T11:20:56.194Z,46.79
2023-02-26T11:23:28.461Z,47.32
2023-02-26T11:26:02.556Z,46.86
2023-02-26T11:28:33.448Z,45.99
2023-02-26T11:31:07.817Z,45.71
2023-02-26T11:33:38.849Z,45.90
2023-02-26T11:36:12.296Z,44.37
2023-02-26T11:38:41.315Z,44.77
2023-02-26T11:41:09.465Z,43.97
2023-02-26T11:43:44.776Z,44.51
2023-02-26T11:46:14.991Z,44.47
2023-02-26T11:48:45.238Z,43.92
2023-02-26T11:51:16.869Z,44.04
2023-02-26T11:53:50.249Z,44.17
2023-02-26T11:56:26.196Z,44.35
2023-02-26T11:58:56.396Z,43.39
2023-02-26T12:01:30.273Z,44.00
2023-02-26T12:04:01.959Z,44.00
2023-02-26T12:06:30.226Z,44.70
2023-02-26T12:08:58.271Z,45.83
2023-02-26T12:11:50.157Z,45.61
2023-02-26T12:14:38.071Z,45.65
2023-02-26T12:17:20.265Z,46.17
2023-02-26T12:19:56.104Z,46.12
2023-02-26T12:22:40.607Z,46.85
2023-02-26T12:25:24.154Z,47.09
2023-02-26T12:28:11.574Z,46.29
2023-02-26T12:30:52.795Z,44.50
2023-02-26T12:33:34.735Z,43.94
2023-02-26T12:36:17.614Z,43.37
2023-02-26T12:38:56.203Z,43.52
2023-02-26T12:41:43.072Z,43.50
2023-02-26T12:44:42.731Z,42.92
2023-02-26T12:47:37.717Z,43.56
2023-02-26T12:50:30.166Z,43.86
2023-02-26T12:53:14.152Z,41.98
2023-02-26T12:55:58.355Z,42.00
2023-02-26T12:58:49.207Z,41.89
2023-02-26T13:01:38.504Z,41.61
2023-02-26T13:04:34.503Z,42.06
2023-02-26T13:07:23.974Z,41.14
2023-02-26T13:10:01.275Z,41.35
2023-02-26T13:12:52.897Z,40.55
2023-02-26T13:15:49.454Z,40.59
2023-02-26T13:18:34.113Z,40.83
2023-02-26T13:21:07.146Z,41.04
2023-02-26T13:23:46.145Z,40.63
2023-02-26T13:26:16.500Z,40.21
2023-02-26T13:28:55.907Z,40.20
2023-02-26T13:31:29.680Z,40.67
2023-02-26T13:34:02.837Z,41.21
2023-02-26T13:36:31.649Z,41.30
2023-02-26T13:39:23.836Z,41.17
2023-02-26T13:41:58.564Z,41.86
2023-02-26T13:44:34.770Z,43.35
2023-02-26T13:47:18.115Z,43.87
2023-02-26T13:49:57.013Z,45.15
2023-02-26T13:52:27.579Z,45.46
2023-02-26T13:54:59.386Z,46.08
2023-02-26T13:57:43.658Z,47.31
2023-02-26T14:00:29.605Z,48.17
2023-02-26T14:02:59.119Z,48.95
2023-02-26T14:05:47.389Z,49.58
2023-02-26T14:08:50.758Z,51.14
2023-02-26T14:12:01.049Z,52.01
2023-02-26T14:14:36.719Z,51.46
2023-02-26T14:17:30.608Z,51.92
2023-02-26T14:20:32.657Z,51.72
2023-02-26T14:23:34.142Z,51.27
2023-02-26T14:26:07.396Z,52.09
2023-02-26T14:28:47.178Z,50.85
2023-02-26T14:31:19.710Z,51.57
2023-02-26T14:33:59.273Z,52.35
2023-02-26T14:36:34.019Z,51.73
2023-02-26T14:39:05.526Z,50.98
2023-02-26T14:41:37.356Z,51.03
2023-02-26T14:44:15.972Z,50.14
2023-02-26T14:46:45.320Z,50.04
2023-02-26T14:49:19.241Z,49.12
2023-02-26T14:52:03.724Z,48.25
2023-02-26T14:54:51.233Z,47.50
2023-02-26T14:57:27.419Z,47.21
2023-02-26T15:00:12.866Z,48.02
2023-02-26T15:03:01.618Z,48.72
2023-02-26T15:05:45.549Z,49.56
2023-02-26T15:08:31.476Z,49.72
2023-02-26T15:11:24.112Z,50.07
2023-02-26T15:14:36.616Z,50.90
2023-02-26T15:17:18.592Z,50.55
2023-02-26T15:20:02.283Z,50.52
2023-02-26T15:22:45.540Z,49.89
2023-02-26T15:25:22.078Z,49.97
2023-02-26T15:27:50.112Z,50.60
2023-02-26T15:30:19.203Z,50.77
2023-02-26T15:32:49.000Z,51.66
2023-02-26T15:35:19.263Z,51.72
2023-02-26T15:37:51.319Z,50.58
2023-02-26T15:40:21.202Z,50.32
2023-02-26T15:42:52.833Z,48.68
2023-02-26T15:45:26.186Z,49.23
2023-02-26T15:47:58.813Z,50.50
2023-02-26T15:50:30.657Z,51.26
2023-02-26T15:53:01.927Z,52.03
2023-02-26T15:55:35.790Z,51.58
2023-02-26T15:58:04.908Z,50.93
2023-02-26T16:00:34.693Z,50.69
2023-02-26T16:03:04.771Z,49.44
2023-02-26T16:05:32.818Z,49.78
2023-02-26T16:08:00.901Z,50.26
2023-02-26T16:10:34.025Z,50.57
2023-02-26T16:13:03.224Z,50.13
2023-02-26T16:15:34.739Z,50.58
2023-02-26T16:18:07.603Z,51.08
2023-02-26T16:20:40.995Z,51.44
2023-02-26T16:23:14.500Z,52.82
2023-02-26T16:25:50.460Z,53.69
2023-02-26T16:28:22.360Z,54.04
2023-02-26T16:30:54.469Z,54.23
2023-02-26T16:33:25.796Z,53.75
2023-02-26T16:35:56.465Z,53.00
2023-02-26T16:38:26.828Z,52.87
2023-02-26T16:41:05.452Z,52.29
2023-02-26T16:43:43.335Z,52.10
2023-02-26T16:46:16.635Z,52.63
2023-02-26T16:48:50.287Z,52.57
2023-02-26T16:51:22.524Z,52.63
2023-02-26T16:53:58.084Z,52.14
2023-02-26T16:56:29.755Z,52.45
2023-02-26T16:59:05.453Z,52.90
2023-02-26T17:01:37.909Z,52.92
2023-02-26T17:04:08.639Z,53.07
2023-02-26T17:06:39.945Z,53.41
2023-02-26T17:09:10.367Z,52.78
2023-02-26T17:11:42.355Z,52.96
2023-02-26T17:14:19.028Z,53.23
2023-02-26T17:16:47.571Z,52.80
2023-02-26T17:19:17.430Z,52.06
2023-02-26T17:21:47.926Z,51.43
2023-02-26T17:24:18.884Z,51.21
2023-02-26T17:26:48.267Z,51.19
2023-02-26T17:29:20.811Z,51.05
2023-02-26T17:31:48.765Z,50.85
2023-02-26T17:34:19.391Z,50.89
2023-02-26T17:36:47.806Z,51.26
2023-02-26T17:39:16.090Z,51.32
2023-02-26T17:41:45.286Z,51.11
2023-02-26T17:44:13.224Z,50.96
2023-02-26T17:46:41.236Z,51.57
2023-02-26T17:49:10.693Z,51.57
2023-02-26T17:51:40.079Z,51.61
2023-02-26T17:54:08.331Z,52.01
2023-02-26T17:56:37.187Z,51.80
2023-02-26T17:59:07.053Z,52.64
2023-02-26T18:01:34.982Z,52.94
2023-02-26T18:04:03.626Z,53.03
2023-02-26T18:06:34.386Z,52.86
2023-02-26T18:09:05.721Z,53.45
2023-02-26T18:11:34.606Z,53.22
2023-02-26T18:14:02.645Z,53.98
2023-02-26T18:16:33.799Z,53.62
2023-02-26T18:19:02.318Z,53.79
2023-02-26T18:21:31.173Z,54.02
2023-02-26T18:24:00.997Z,54.05
2023-02-26T18:26:33.862Z,54.42
2023-02-26T18:29:01.916Z,54.23
2023-02-26T18:31:34.671Z,54.22
2023-02-26T18:34:03.663Z,54.10
2023-02-26T18:36:37.524Z,53.86
2023-02-26T18:39:07.893Z,54.27
2023-02-26T18:41:37.195Z,53.65
2023-02-26T18:44:05.222Z,54.27
2023-02-26T18:46:34.772Z,54.13
2023-02-26T18:49:02.731Z,54.17
2023-02-26T18:51:34.432Z,54.32
2023-02-26T18:54:02.349Z,54.01
2023-02-26T18:56:30.223Z,53.95
2023-02-26T18:58:59.500Z,54.69
2023-02-26T19:01:29.794Z,54.80
2023-02-26T19:03:58.251Z,55.05
2023-02-26T19:06:26.101Z,54.80
2023-02-26T19:08:54.171Z,55.41
2023-02-26T19:11:22.069Z,55.43
2023-02-26T19:13:52.504Z,55.69
2023-02-26T19:16:23.053Z,55.87
2023-02-26T19:18:51.654Z,55.39
2023-02-26T19:21:19.591Z,56.30
2023-02-26T19:23:48.342Z,56.07
2023-02-26T19:26:16.186Z,56.17
2023-02-26T19:28:44.130Z,56.19
2023-02-26T19:31:12.106Z,56.19
2023-02-26T19:33:41.442Z,56.57
2023-02-26T19:36:09.859Z,56.41
2023-02-26T19:38:37.874Z,56.53
2023-02-26T19:41:06.141Z,56.54
2023-02-26T19:43:34.066Z,56.39
2023-02-26T19:46:02.190Z,56.87
2023-02-26T19:48:31.398Z,56.26
2023-02-26T19:51:01.427Z,56.76
2023-02-26T19:53:30.416Z,56.53
2023-02-26T19:55:58.367Z,56.77
2023-02-26T19:58:30.526Z,56.60
2023-02-26T20:00:59.323Z,56.64
2023-02-26T20:03:27.295Z,56.74
2023-02-26T20:05:56.072Z,56.82
2023-02-26T20:08:27.746Z,56.58
2023-02-26T20:10:56.758Z,56.52
2023-02-26T20:13:29.612Z,56.21
2023-02-26T20:15:58.615Z,56.08
2023-02-26T20:18:28.625Z,56.11
2023-02-26T20:20:56.686Z,55.72
2023-02-26T20:23:26.276Z,56.13
2023-02-26T20:25:56.335Z,56.44
2023-02-26T20:28:24.821Z,56.41
2023-02-26T20:30:53.526Z,56.27
2023-02-26T20:33:22.108Z,55.54
2023-02-26T20:35:50.098Z,55.69
2023-02-26T20:38:19.337Z,55.79
2023-02-26T20:40:49.390Z,55.60
2023-02-26T20:43:17.508Z,55.50
2023-02-26T20:45:45.494Z,55.08
2023-02-26T20:48:13.473Z,54.91
2023-02-26T20:50:41.604Z,54.90
2023-02-26T20:53:09.842Z,54.91
2023-02-26T20:55:38.004Z,54.85
2023-02-26T20:58:07.342Z,54.35
2023-02-26T21:00:35.277Z,54.40
2023-02-26T21:03:03.241Z,54.67
2023-02-26T21:05:31.115Z,54.76
2023-02-26T21:07:59.034Z,54.62
2023-02-26T21:10:26.877Z,54.02
2023-02-26T21:12:54.713Z,53.79
2023-02-26T21:15:23.994Z,53.84
2023-02-26T21:17:51.887Z,53.86
2023-02-26T21:20:22.172Z,53.87
2023-02-26T21:22:50.690Z,53.71
2023-02-26T21:25:18.823Z,53.97
2023-02-26T21:27:46.651Z,53.50
2023-02-26T21:30:15.751Z,53.87
2023-02-26T21:32:45.072Z,53.63
2023-02-26T21:35:15.924Z,53.38
2023-02-26T21:37:44.190Z,53.63
2023-02-26T21:40:13.574Z,53.48
2023-02-26T21:42:41.778Z,53.59
2023-02-26T21:45:11.049Z,53.94
2023-02-26T21:47:39.109Z,54.42
2023-02-26T21:50:09.085Z,54.08
2023-02-26T21:52:37.021Z,53.76
2023-02-26T21:55:05.242Z,53.61
2023-02-26T21:57:33.124Z,53.78
2023-02-26T22:00:01.042Z,53.47
2023-02-26T22:02:31.152Z,53.41
2023-02-26T22:04:59.892Z,52.83
2023-02-26T22:07:29.160Z,52.86
2023-02-26T22:09:57.210Z,52.99
2023-02-26T22:12:25.942Z,53.01
2023-02-26T22:14:54.029Z,53.43
2023-02-26T22:17:23.649Z,53.64
2023-02-26T22:19:52.542Z,53.49
2023-02-26T22:22:20.406Z,53.31
2023-02-26T22:24:49.655Z,53.06
2023-02-26T22:27:17.458Z,52.96
2023-02-26T22:29:45.337Z,53.07
2023-02-26T22:32:13.254Z,53.22
2023-02-26T22:34:41.144Z,52.82
2023-02-26T22:37:08.978Z,52.78
2023-02-26T22:39:36.796Z,52.87
2023-02-26T22:42:06.109Z,52.61
2023-02-26T22:44:34.483Z,52.33
2023-02-26T22:47:02.327Z,51.86
2023-02-26T22:49:30.196Z,51.84
2023-02-26T22:51:58.003Z,51.86
2023-02-26T22:54:25.914Z,51.77
2023-02-26T22:56:53.703Z,51.57
2023-02-26T22:59:23.088Z,51.96
2023-02-26T23:01:50.976Z,51.81
2023-02-26T23:04:19.061Z,51.66
2023-02-26T23:06:46.954Z,51.70
2023-02-26T23:09:14.806Z,51.57
2023-02-26T23:11:42.704Z,51.77
2023-02-26T23:14:10.623Z,51.92
2023-02-26T23:16:39.857Z,52.16
2023-02-26T23:19:07.914Z,51.82
2023-02-26T23:21:35.964Z,51.78
2023-02-26T23:24:03.841Z,51.44
2023-02-26T23:26:31.860Z,51.18
2023-02-26T23:28:59.722Z,51.63
2023-02-26T23:31:28.176Z,51.61
2023-02-26T23:33:57.688Z,51.53
2023-02-26T23:36:25.612Z,51.50
2023-02-26T23:38:53.518Z,51.62
2023-02-26T23:41:21.355Z,51.84
2023-02-26T23:43:49.299Z,51.86
2023-02-26T23:46:17.151Z,52.15
2023-02-26T23:48:45.111Z,52.29
2023-02-26T23:51:14.379Z,52.27
2023-02-26T23:53:42.250Z,52.26
2023-02-26T23:56:10.171Z,51.95
2023-02-26T23:58:38.018Z,51.86
